sensor_id;sensor_type;location;lat;lon;timestamp;pressure;altitude;pressure_sealevel;temperature;humidity
27294;BME280;14785;52.556;13.430;2023-08-06T00:00:24;100025.22;;;22.56;100.00
27294;BME280;14785;52.556;13.430;2023-08-06T00:02:49;100019.16;;;22.32;100.00
27294;BME280;14785;52.556;13.430;2023-08-06T00:05:16;100027.53;;;22.47;100.00
27294;BME280;14785;52.556;13.430;2023-08-06T00:07:48;100030.09;;;22.54;100.00
27294;BME280;14785;52.556;13.430;2023-08-06T00:10:15;100029.09;;;22.43;100.00
27294;BME280;14785;52.556;13.430;2023-08-06T00:12:40;100029.75;;;22.50;100.00
27294;BME280;14785;52.556;13.430;2023-08-06T00:15:06;100022.38;;;22.29;100.00
27294;BME280;14785;52.556;13.430;2023-08-06T00:17:33;100024.31;;;21.84;100.00
27294;BME280;14785;52.556;13.430;2023-08-06T00:20:00;100016.63;;;22.09;100.00
27294;BME280;14785;52.556;13.430;2023-08-06T00:22:34;100012.03;;;21.93;100.00
27294;BME280;14785;52.556;13.430;2023-08-06T00:25:02;100003.50;;;21.73;100.00
27294;BME280;14785;52.556;13.430;2023-08-06T00:27:27;100011.13;;;21.88;100.00
27294;BME280;14785;52.556;13.430;2023-08-06T00:29:55;100006.47;;;22.16;100.00
27294;BME280;14785;52.556;13.430;2023-08-06T00:32:23;99995.78;;;22.10;100.00
27294;BME280;14785;52.556;13.430;2023-08-06T00:34:48;100000.53;;;21.86;100.00
27294;BME280;14785;52.556;13.430;2023-08-06T00:37:18;99999.22;;;21.89;100.00
27294;BME280;14785;52.556;13.430;2023-08-06T00:39:46;100000.59;;;21.75;100.00
27294;BME280;14785;52.556;13.430;2023-08-06T00:42:12;99996.84;;;21.64;100.00
27294;BME280;14785;52.556;13.430;2023-08-06T00:44:39;99996.13;;;21.24;100.00
27294;BME280;14785;52.556;13.430;2023-08-06T00:47:06;99999.41;;;21.54;100.00
27294;BME280;14785;52.556;13.430;2023-08-06T00:49:33;99994.94;;;21.76;100.00
27294;BME280;14785;52.556;13.430;2023-08-06T00:51:58;99991.84;;;22.01;100.00
27294;BME280;14785;52.556;13.430;2023-08-06T00:54:25;99989.53;;;21.93;100.00
27294;BME280;14785;52.556;13.430;2023-08-06T00:56:53;99977.69;;;22.15;100.00
27294;BME280;14785;52.556;13.430;2023-08-06T00:59:20;99989.88;;;21.96;100.00
27294;BME280;14785;52.556;13.430;2023-08-06T01:01:46;99992.47;;;21.75;100.00
27294;BME280;14785;52.556;13.430;2023-08-06T01:04:11;99983.31;;;21.92;100.00
27294;BME280;14785;52.556;13.430;2023-08-06T01:06:48;99987.75;;;21.98;100.00
27294;BME280;14785;52.556;13.430;2023-08-06T01:15:30;99988.19;;;21.62;100.00
27294;BME280;14785;52.556;13.430;2023-08-06T01:17:59;99986.25;;;22.07;100.00
27294;BME280;14785;52.556;13.430;2023-08-06T01:20:29;99981.00;;;21.84;100.00
27294;BME280;14785;52.556;13.430;2023-08-06T01:22:55;99977.41;;;22.12;100.00
27294;BME280;14785;52.556;13.430;2023-08-06T01:25:24;99973.28;;;22.09;100.00
27294;BME280;14785;52.556;13.430;2023-08-06T01:27:54;99977.81;;;22.04;100.00
27294;BME280;14785;52.556;13.430;2023-08-06T01:30:30;99967.06;;;21.92;100.00
27294;BME280;14785;52.556;13.430;2023-08-06T01:33:04;99966.22;;;21.75;100.00
27294;BME280;14785;52.556;13.430;2023-08-06T01:35:32;99960.56;;;21.32;100.00
27294;BME280;14785;52.556;13.430;2023-08-06T01:37:59;99955.09;;;20.76;100.00
27294;BME280;14785;52.556;13.430;2023-08-06T01:40:27;99952.66;;;20.63;100.00
27294;BME280;14785;52.556;13.430;2023-08-06T01:42:53;99944.34;;;20.53;100.00
27294;BME280;14785;52.556;13.430;2023-08-06T01:45:19;99952.06;;;20.61;100.00
27294;BME280;14785;52.556;13.430;2023-08-06T01:47:44;99950.78;;;20.63;100.00
27294;BME280;14785;52.556;13.430;2023-08-06T01:50:09;99941.03;;;20.74;100.00
27294;BME280;14785;52.556;13.430;2023-08-06T01:52:35;99947.16;;;20.58;100.00
27294;BME280;14785;52.556;13.430;2023-08-06T01:55:00;99936.81;;;21.06;100.00
27294;BME280;14785;52.556;13.430;2023-08-06T01:57:25;99935.94;;;21.17;100.00
27294;BME280;14785;52.556;13.430;2023-08-06T01:59:51;99936.59;;;21.24;100.00
27294;BME280;14785;52.556;13.430;2023-08-06T02:02:16;99932.75;;;21.20;100.00
27294;BME280;14785;52.556;13.430;2023-08-06T02:04:45;99926.97;;;21.28;100.00
27294;BME280;14785;52.556;13.430;2023-08-06T02:07:12;99927.25;;;21.15;100.00
27294;BME280;14785;52.556;13.430;2023-08-06T02:09:37;99916.81;;;21.35;100.00
27294;BME280;14785;52.556;13.430;2023-08-06T02:12:04;99917.16;;;21.55;100.00
27294;BME280;14785;52.556;13.430;2023-08-06T02:14:30;99916.50;;;20.92;100.00
27294;BME280;14785;52.556;13.430;2023-08-06T02:17:00;99917.44;;;21.26;100.00
27294;BME280;14785;52.556;13.430;2023-08-06T02:19:25;99916.22;;;20.77;100.00
27294;BME280;14785;52.556;13.430;2023-08-06T02:21:51;99916.94;;;21.29;100.00
27294;BME280;14785;52.556;13.430;2023-08-06T02:24:17;99915.22;;;20.95;100.00
27294;BME280;14785;52.556;13.430;2023-08-06T02:26:42;99917.00;;;20.89;100.00
27294;BME280;14785;52.556;13.430;2023-08-06T02:29:09;99916.63;;;21.25;100.00
27294;BME280;14785;52.556;13.430;2023-08-06T02:31:35;99911.41;;;20.67;100.00
27294;BME280;14785;52.556;13.430;2023-08-06T02:34:00;99905.53;;;20.31;100.00
27294;BME280;14785;52.556;13.430;2023-08-06T02:36:29;99898.81;;;20.73;100.00
27294;BME280;14785;52.556;13.430;2023-08-06T02:38:55;99893.94;;;20.98;100.00
27294;BME280;14785;52.556;13.430;2023-08-06T02:41:20;99897.06;;;20.67;100.00
27294;BME280;14785;52.556;13.430;2023-08-06T02:43:46;99893.41;;;20.73;100.00
27294;BME280;14785;52.556;13.430;2023-08-06T02:46:12;99896.34;;;20.83;100.00
27294;BME280;14785;52.556;13.430;2023-08-06T02:48:38;99888.28;;;20.60;100.00
27294;BME280;14785;52.556;13.430;2023-08-06T02:51:04;99888.25;;;20.32;100.00
27294;BME280;14785;52.556;13.430;2023-08-06T02:53:30;99884.34;;;20.79;100.00
27294;BME280;14785;52.556;13.430;2023-08-06T02:55:56;99880.78;;;20.62;100.00
27294;BME280;14785;52.556;13.430;2023-08-06T02:58:23;99875.38;;;20.62;100.00
27294;BME280;14785;52.556;13.430;2023-08-06T03:01:05;99885.59;;;20.60;100.00
27294;BME280;14785;52.556;13.430;2023-08-06T03:03:31;99881.63;;;20.79;100.00
27294;BME280;14785;52.556;13.430;2023-08-06T03:05:57;99879.91;;;20.73;100.00
27294;BME280;14785;52.556;13.430;2023-08-06T03:08:22;99886.88;;;20.97;100.00
27294;BME280;14785;52.556;13.430;2023-08-06T03:10:50;99884.47;;;21.12;100.00
27294;BME280;14785;52.556;13.430;2023-08-06T03:13:19;99880.38;;;21.26;100.00
27294;BME280;14785;52.556;13.430;2023-08-06T03:16:00;99879.81;;;20.68;100.00
27294;BME280;14785;52.556;13.430;2023-08-06T03:18:26;99877.81;;;21.20;100.00
27294;BME280;14785;52.556;13.430;2023-08-06T03:20:51;99880.19;;;21.00;100.00
27294;BME280;14785;52.556;13.430;2023-08-06T03:23:18;99870.31;;;20.94;100.00
27294;BME280;14785;52.556;13.430;2023-08-06T03:25:46;99866.31;;;20.68;100.00
27294;BME280;14785;52.556;13.430;2023-08-06T03:28:12;99861.75;;;20.85;100.00
27294;BME280;14785;52.556;13.430;2023-08-06T03:30:39;99862.94;;;20.89;100.00
27294;BME280;14785;52.556;13.430;2023-08-06T03:33:04;99856.44;;;20.90;100.00
27294;BME280;14785;52.556;13.430;2023-08-06T03:35:30;99845.63;;;20.90;100.00
27294;BME280;14785;52.556;13.430;2023-08-06T03:37:56;99840.81;;;20.92;100.00
27294;BME280;14785;52.556;13.430;2023-08-06T03:40:23;99836.13;;;20.59;100.00
27294;BME280;14785;52.556;13.430;2023-08-06T03:42:48;99839.53;;;20.55;100.00
27294;BME280;14785;52.556;13.430;2023-08-06T03:45:14;99837.19;;;20.30;100.00
27294;BME280;14785;52.556;13.430;2023-08-06T03:47:39;99824.03;;;20.22;100.00
27294;BME280;14785;52.556;13.430;2023-08-06T03:50:05;99825.59;;;20.07;100.00
27294;BME280;14785;52.556;13.430;2023-08-06T03:52:30;99826.06;;;20.04;100.00
27294;BME280;14785;52.556;13.430;2023-08-06T03:54:56;99818.69;;;20.39;100.00
27294;BME280;14785;52.556;13.430;2023-08-06T03:57:21;99816.41;;;20.08;100.00
27294;BME280;14785;52.556;13.430;2023-08-06T03:59:47;99812.81;;;20.42;100.00
27294;BME280;14785;52.556;13.430;2023-08-06T04:02:12;99814.97;;;20.40;100.00
27294;BME280;14785;52.556;13.430;2023-08-06T04:04:37;99810.47;;;20.45;100.00
27294;BME280;14785;52.556;13.430;2023-08-06T04:07:04;99808.97;;;20.66;100.00
27294;BME280;14785;52.556;13.430;2023-08-06T04:09:30;99811.59;;;20.10;100.00
27294;BME280;14785;52.556;13.430;2023-08-06T04:11:57;99797.97;;;20.16;100.00
27294;BME280;14785;52.556;13.430;2023-08-06T04:14:26;99799.13;;;20.32;100.00
27294;BME280;14785;52.556;13.430;2023-08-06T04:16:57;99793.81;;;21.10;100.00
27294;BME280;14785;52.556;13.430;2023-08-06T04:19:22;99800.56;;;21.40;100.00
27294;BME280;14785;52.556;13.430;2023-08-06T04:21:47;99799.97;;;21.38;100.00
27294;BME280;14785;52.556;13.430;2023-08-06T04:24:13;99794.94;;;21.63;100.00
27294;BME280;14785;52.556;13.430;2023-08-06T04:26:38;99795.16;;;21.07;100.00
27294;BME280;14785;52.556;13.430;2023-08-06T04:29:05;99797.75;;;21.02;100.00
27294;BME280;14785;52.556;13.430;2023-08-06T04:31:31;99794.81;;;21.20;100.00
27294;BME280;14785;52.556;13.430;2023-08-06T04:33:57;99779.41;;;21.37;100.00
27294;BME280;14785;52.556;13.430;2023-08-06T04:36:24;99776.63;;;21.32;100.00
27294;BME280;14785;52.556;13.430;2023-08-06T04:38:50;99773.81;;;21.44;100.00
27294;BME280;14785;52.556;13.430;2023-08-06T04:41:17;99768.47;;;21.49;100.00
27294;BME280;14785;52.556;13.430;2023-08-06T04:43:43;99767.88;;;21.63;100.00
27294;BME280;14785;52.556;13.430;2023-08-06T04:46:08;99770.50;;;21.75;100.00
27294;BME280;14785;52.556;13.430;2023-08-06T04:48:33;99762.06;;;21.55;100.00
27294;BME280;14785;52.556;13.430;2023-08-06T04:51:00;99751.03;;;21.23;100.00
27294;BME280;14785;52.556;13.430;2023-08-06T04:53:25;99753.97;;;21.38;100.00
27294;BME280;14785;52.556;13.430;2023-08-06T04:55:51;99751.69;;;21.30;100.00
27294;BME280;14785;52.556;13.430;2023-08-06T04:58:16;99759.03;;;21.51;100.00
27294;BME280;14785;52.556;13.430;2023-08-06T05:00:42;99758.25;;;21.72;100.00
27294;BME280;14785;52.556;13.430;2023-08-06T05:03:09;99756.22;;;21.63;100.00
27294;BME280;14785;52.556;13.430;2023-08-06T05:05:35;99748.97;;;21.30;100.00
27294;BME280;14785;52.556;13.430;2023-08-06T05:08:00;99753.91;;;21.71;100.00
27294;BME280;14785;52.556;13.430;2023-08-06T05:10:28;99749.91;;;21.03;100.00
27294;BME280;14785;52.556;13.430;2023-08-06T05:12:54;99752.28;;;20.99;100.00
27294;BME280;14785;52.556;13.430;2023-08-06T05:15:19;99748.91;;;20.92;100.00
27294;BME280;14785;52.556;13.430;2023-08-06T05:17:46;99751.00;;;20.90;100.00
27294;BME280;14785;52.556;13.430;2023-08-06T05:20:11;99743.69;;;21.02;100.00
27294;BME280;14785;52.556;13.430;2023-08-06T05:22:37;99746.47;;;21.07;100.00
27294;BME280;14785;52.556;13.430;2023-08-06T05:25:03;99736.91;;;20.71;100.00
27294;BME280;14785;52.556;13.430;2023-08-06T05:27:29;99725.63;;;21.24;100.00
27294;BME280;14785;52.556;13.430;2023-08-06T05:29:55;99727.84;;;21.27;100.00
27294;BME280;14785;52.556;13.430;2023-08-06T05:32:21;99716.53;;;21.14;100.00
27294;BME280;14785;52.556;13.430;2023-08-06T05:34:46;99715.63;;;21.25;100.00
27294;BME280;14785;52.556;13.430;2023-08-06T05:37:12;99719.72;;;21.27;100.00
27294;BME280;14785;52.556;13.430;2023-08-06T05:39:37;99720.94;;;21.36;100.00
27294;BME280;14785;52.556;13.430;2023-08-06T05:42:04;99720.16;;;21.57;100.00
27294;BME280;14785;52.556;13.430;2023-08-06T05:44:29;99720.59;;;21.87;100.00
27294;BME280;14785;52.556;13.430;2023-08-06T05:46:56;99715.84;;;21.99;100.00
27294;BME280;14785;52.556;13.430;2023-08-06T05:49:21;99724.72;;;22.16;100.00
27294;BME280;14785;52.556;13.430;2023-08-06T05:51:49;99731.66;;;22.07;100.00
27294;BME280;14785;52.556;13.430;2023-08-06T05:54:15;99730.47;;;21.98;100.00
27294;BME280;14785;52.556;13.430;2023-08-06T05:56:40;99732.34;;;21.98;100.00
27294;BME280;14785;52.556;13.430;2023-08-06T05:59:07;99727.91;;;21.70;100.00
27294;BME280;14785;52.556;13.430;2023-08-06T06:01:32;99726.50;;;21.84;100.00
27294;BME280;14785;52.556;13.430;2023-08-06T06:03:58;99718.97;;;21.86;100.00
27294;BME280;14785;52.556;13.430;2023-08-06T06:06:23;99717.16;;;22.18;100.00
27294;BME280;14785;52.556;13.430;2023-08-06T06:08:49;99719.66;;;22.25;100.00
27294;BME280;14785;52.556;13.430;2023-08-06T06:11:16;99716.53;;;22.11;100.00
27294;BME280;14785;52.556;13.430;2023-08-06T06:13:41;99715.38;;;22.29;100.00
27294;BME280;14785;52.556;13.430;2023-08-06T06:16:07;99715.75;;;22.37;100.00
27294;BME280;14785;52.556;13.430;2023-08-06T06:18:34;99712.16;;;22.32;100.00
27294;BME280;14785;52.556;13.430;2023-08-06T06:21:02;99711.56;;;22.51;100.00
27294;BME280;14785;52.556;13.430;2023-08-06T06:23:27;99707.66;;;22.42;100.00
27294;BME280;14785;52.556;13.430;2023-08-06T06:25:53;99704.91;;;21.89;100.00
27294;BME280;14785;52.556;13.430;2023-08-06T06:28:19;99709.25;;;21.90;100.00
27294;BME280;14785;52.556;13.430;2023-08-06T06:30:44;99703.06;;;22.16;100.00
27294;BME280;14785;52.556;13.430;2023-08-06T06:33:10;99695.38;;;22.35;100.00
27294;BME280;14785;52.556;13.430;2023-08-06T06:35:36;99691.63;;;22.36;100.00
27294;BME280;14785;52.556;13.430;2023-08-06T06:38:04;99688.69;;;22.42;100.00
27294;BME280;14785;52.556;13.430;2023-08-06T06:40:29;99691.91;;;22.39;100.00
27294;BME280;14785;52.556;13.430;2023-08-06T06:42:54;99687.91;;;22.74;100.00
27294;BME280;14785;52.556;13.430;2023-08-06T06:45:22;99679.16;;;22.98;100.00
27294;BME280;14785;52.556;13.430;2023-08-06T06:47:48;99689.81;;;23.10;100.00
27294;BME280;14785;52.556;13.430;2023-08-06T06:50:13;99683.34;;;23.11;100.00
27294;BME280;14785;52.556;13.430;2023-08-06T06:52:38;99687.94;;;23.10;100.00
27294;BME280;14785;52.556;13.430;2023-08-06T06:55:04;99680.56;;;23.06;100.00
27294;BME280;14785;52.556;13.430;2023-08-06T06:57:31;99681.66;;;23.05;100.00
27294;BME280;14785;52.556;13.430;2023-08-06T06:59:56;99677.38;;;23.14;100.00
27294;BME280;14785;52.556;13.430;2023-08-06T07:02:22;99677.50;;;22.92;100.00
27294;BME280;14785;52.556;13.430;2023-08-06T07:04:47;99690.00;;;22.98;100.00
27294;BME280;14785;52.556;13.430;2023-08-06T07:07:13;99690.31;;;23.02;100.00
27294;BME280;14785;52.556;13.430;2023-08-06T07:09:38;99689.84;;;23.15;100.00
27294;BME280;14785;52.556;13.430;2023-08-06T07:12:04;99688.38;;;22.97;100.00
27294;BME280;14785;52.556;13.430;2023-08-06T07:14:31;99691.41;;;23.06;100.00
27294;BME280;14785;52.556;13.430;2023-08-06T07:16:58;99684.44;;;23.15;100.00
27294;BME280;14785;52.556;13.430;2023-08-06T07:19:23;99692.09;;;23.23;100.00
27294;BME280;14785;52.556;13.430;2023-08-06T07:21:50;99690.03;;;23.35;100.00
27294;BME280;14785;52.556;13.430;2023-08-06T07:24:16;99692.44;;;23.31;100.00
27294;BME280;14785;52.556;13.430;2023-08-06T07:26:42;99695.28;;;23.15;100.00
27294;BME280;14785;52.556;13.430;2023-08-06T07:29:07;99690.63;;;23.47;100.00
27294;BME280;14785;52.556;13.430;2023-08-06T07:31:33;99690.13;;;23.55;100.00
27294;BME280;14785;52.556;13.430;2023-08-06T07:33:59;99692.53;;;23.46;100.00
27294;BME280;14785;52.556;13.430;2023-08-06T07:36:25;99696.50;;;23.34;100.00
27294;BME280;14785;52.556;13.430;2023-08-06T07:38:51;99682.75;;;23.09;100.00
27294;BME280;14785;52.556;13.430;2023-08-06T07:41:22;99689.47;;;21.68;100.00
27294;BME280;14785;52.556;13.430;2023-08-06T07:43:47;99684.78;;;22.28;100.00
27294;BME280;14785;52.556;13.430;2023-08-06T07:46:13;99690.66;;;22.79;100.00
27294;BME280;14785;52.556;13.430;2023-08-06T07:48:39;99688.00;;;22.84;100.00
27294;BME280;14785;52.556;13.430;2023-08-06T07:51:04;99681.88;;;22.67;100.00
27294;BME280;14785;52.556;13.430;2023-08-06T07:53:29;99694.53;;;21.81;100.00
27294;BME280;14785;52.556;13.430;2023-08-06T07:55:56;99692.41;;;22.36;100.00
27294;BME280;14785;52.556;13.430;2023-08-06T07:58:23;99688.03;;;22.30;100.00
27294;BME280;14785;52.556;13.430;2023-08-06T08:00:50;99683.91;;;22.49;100.00
27294;BME280;14785;52.556;13.430;2023-08-06T08:03:17;99684.84;;;22.65;100.00
27294;BME280;14785;52.556;13.430;2023-08-06T08:05:43;99690.47;;;22.05;100.00
27294;BME280;14785;52.556;13.430;2023-08-06T08:08:10;99689.59;;;21.78;100.00
27294;BME280;14785;52.556;13.430;2023-08-06T08:10:37;99680.25;;;22.12;100.00
27294;BME280;14785;52.556;13.430;2023-08-06T08:13:03;99676.16;;;21.24;100.00
27294;BME280;14785;52.556;13.430;2023-08-06T08:15:30;99669.91;;;20.90;100.00
27294;BME280;14785;52.556;13.430;2023-08-06T08:17:56;99684.78;;;21.42;100.00
27294;BME280;14785;52.556;13.430;2023-08-06T08:20:22;99684.41;;;19.95;100.00
27294;BME280;14785;52.556;13.430;2023-08-06T08:22:49;99669.84;;;19.68;100.00
27294;BME280;14785;52.556;13.430;2023-08-06T08:25:15;99679.31;;;19.31;100.00
27294;BME280;14785;52.556;13.430;2023-08-06T08:27:41;99663.09;;;19.08;100.00
27294;BME280;14785;52.556;13.430;2023-08-06T08:30:07;99663.47;;;19.11;100.00
27294;BME280;14785;52.556;13.430;2023-08-06T08:32:32;99658.75;;;19.30;100.00
27294;BME280;14785;52.556;13.430;2023-08-06T08:35:16;99659.69;;;19.24;100.00
27294;BME280;14785;52.556;13.430;2023-08-06T08:37:44;99657.03;;;19.01;100.00
27294;BME280;14785;52.556;13.430;2023-08-06T08:40:10;99661.81;;;19.73;100.00
27294;BME280;14785;52.556;13.430;2023-08-06T08:42:36;99648.38;;;20.01;100.00
27294;BME280;14785;52.556;13.430;2023-08-06T08:45:04;99649.06;;;18.82;100.00
27294;BME280;14785;52.556;13.430;2023-08-06T08:47:33;99644.69;;;18.81;100.00
27294;BME280;14785;52.556;13.430;2023-08-06T08:49:59;99634.53;;;19.69;100.00
27294;BME280;14785;52.556;13.430;2023-08-06T08:52:26;99637.59;;;20.78;100.00
27294;BME280;14785;52.556;13.430;2023-08-06T08:54:53;99635.84;;;20.89;100.00
27294;BME280;14785;52.556;13.430;2023-08-06T08:57:20;99630.69;;;20.38;100.00
27294;BME280;14785;52.556;13.430;2023-08-06T08:59:53;99635.13;;;19.88;100.00
27294;BME280;14785;52.556;13.430;2023-08-06T09:02:23;99619.34;;;19.80;100.00
27294;BME280;14785;52.556;13.430;2023-08-06T09:04:56;99625.84;;;19.28;100.00
27294;BME280;14785;52.556;13.430;2023-08-06T09:07:25;99623.94;;;19.17;100.00
27294;BME280;14785;52.556;13.430;2023-08-06T09:09:52;99607.88;;;19.73;100.00
27294;BME280;14785;52.556;13.430;2023-08-06T09:12:18;99608.50;;;20.52;100.00
27294;BME280;14785;52.556;13.430;2023-08-06T09:14:43;99609.50;;;20.63;100.00
27294;BME280;14785;52.556;13.430;2023-08-06T09:17:09;99609.44;;;18.94;100.00
27294;BME280;14785;52.556;13.430;2023-08-06T09:19:37;99606.38;;;19.02;100.00
27294;BME280;14785;52.556;13.430;2023-08-06T09:22:11;99603.81;;;19.08;100.00
27294;BME280;14785;52.556;13.430;2023-08-06T09:24:39;99603.81;;;19.08;100.00
27294;BME280;14785;52.556;13.430;2023-08-06T09:27:10;99606.59;;;19.36;100.00
27294;BME280;14785;52.556;13.430;2023-08-06T09:29:40;99598.19;;;20.33;100.00
27294;BME280;14785;52.556;13.430;2023-08-06T09:32:07;99589.19;;;20.27;100.00
27294;BME280;14785;52.556;13.430;2023-08-06T09:34:33;99595.22;;;21.44;100.00
27294;BME280;14785;52.556;13.430;2023-08-06T09:37:00;99595.16;;;21.60;100.00
27294;BME280;14785;52.556;13.430;2023-08-06T09:39:29;99592.47;;;20.13;100.00
27294;BME280;14785;52.556;13.430;2023-08-06T09:41:56;99593.22;;;19.41;100.00
27294;BME280;14785;52.556;13.430;2023-08-06T09:44:24;99582.44;;;19.18;100.00
27294;BME280;14785;52.556;13.430;2023-08-06T09:46:51;99577.41;;;19.33;100.00
27294;BME280;14785;52.556;13.430;2023-08-06T09:49:25;99581.28;;;20.09;100.00
27294;BME280;14785;52.556;13.430;2023-08-06T09:51:52;99574.31;;;20.41;100.00
27294;BME280;14785;52.556;13.430;2023-08-06T09:54:22;99560.47;;;19.77;100.00
27294;BME280;14785;52.556;13.430;2023-08-06T09:56:48;99574.03;;;19.82;100.00
27294;BME280;14785;52.556;13.430;2023-08-06T09:59:13;99564.84;;;21.15;100.00
27294;BME280;14785;52.556;13.430;2023-08-06T10:01:42;99567.50;;;22.06;100.00
27294;BME280;14785;52.556;13.430;2023-08-06T10:04:08;99557.06;;;22.20;100.00
27294;BME280;14785;52.556;13.430;2023-08-06T10:06:35;99571.66;;;22.82;100.00
27294;BME280;14785;52.556;13.430;2023-08-06T10:09:02;99561.25;;;23.11;100.00
27294;BME280;14785;52.556;13.430;2023-08-06T10:11:27;99557.44;;;22.65;100.00
27294;BME280;14785;52.556;13.430;2023-08-06T10:14:02;99553.75;;;22.44;100.00
27294;BME280;14785;52.556;13.430;2023-08-06T10:16:30;99550.84;;;21.66;100.00
27294;BME280;14785;52.556;13.430;2023-08-06T10:18:57;99553.28;;;21.89;100.00
27294;BME280;14785;52.556;13.430;2023-08-06T10:21:24;99565.75;;;20.66;100.00
27294;BME280;14785;52.556;13.430;2023-08-06T10:23:56;99543.00;;;19.96;100.00
27294;BME280;14785;52.556;13.430;2023-08-06T10:26:26;99546.38;;;21.07;100.00
27294;BME280;14785;52.556;13.430;2023-08-06T10:28:52;99551.63;;;20.97;100.00
27294;BME280;14785;52.556;13.430;2023-08-06T10:31:20;99548.59;;;21.80;100.00
27294;BME280;14785;52.556;13.430;2023-08-06T10:33:47;99542.34;;;22.37;100.00
27294;BME280;14785;52.556;13.430;2023-08-06T10:36:15;99542.53;;;22.68;100.00
27294;BME280;14785;52.556;13.430;2023-08-06T10:38:45;99546.19;;;23.40;100.00
27294;BME280;14785;52.556;13.430;2023-08-06T10:41:30;99544.66;;;22.56;100.00
27294;BME280;14785;52.556;13.430;2023-08-06T10:44:06;99539.31;;;22.02;100.00
27294;BME280;14785;52.556;13.430;2023-08-06T10:46:34;99540.16;;;22.39;100.00
27294;BME280;14785;52.556;13.430;2023-08-06T10:49:01;99540.47;;;21.10;100.00
27294;BME280;14785;52.556;13.430;2023-08-06T10:51:28;99540.13;;;21.50;100.00
27294;BME280;14785;52.556;13.430;2023-08-06T10:53:55;99539.13;;;20.20;100.00
27294;BME280;14785;52.556;13.430;2023-08-06T10:56:24;99538.03;;;20.21;100.00
27294;BME280;14785;52.556;13.430;2023-08-06T10:58:53;99526.16;;;19.61;100.00
27294;BME280;14785;52.556;13.430;2023-08-06T11:01:18;99527.22;;;19.60;100.00
27294;BME280;14785;52.556;13.430;2023-08-06T11:03:46;99520.94;;;20.15;100.00
27294;BME280;14785;52.556;13.430;2023-08-06T11:06:21;99528.16;;;20.81;100.00
27294;BME280;14785;52.556;13.430;2023-08-06T11:08:49;99521.16;;;20.85;100.00
27294;BME280;14785;52.556;13.430;2023-08-06T11:11:16;99515.72;;;21.71;100.00
27294;BME280;14785;52.556;13.430;2023-08-06T11:13:43;99512.63;;;22.16;100.00
27294;BME280;14785;52.556;13.430;2023-08-06T11:16:11;99506.81;;;22.34;100.00
27294;BME280;14785;52.556;13.430;2023-08-06T11:18:38;99506.09;;;21.80;100.00
27294;BME280;14785;52.556;13.430;2023-08-06T11:21:03;99511.72;;;20.66;100.00
27294;BME280;14785;52.556;13.430;2023-08-06T11:23:29;99515.03;;;20.51;100.00
27294;BME280;14785;52.556;13.430;2023-08-06T11:25:57;99505.41;;;20.22;100.00
27294;BME280;14785;52.556;13.430;2023-08-06T11:28:24;99486.50;;;21.20;100.00
27294;BME280;14785;52.556;13.430;2023-08-06T11:30:50;99489.19;;;20.22;100.00
27294;BME280;14785;52.556;13.430;2023-08-06T11:33:23;99492.19;;;20.59;100.00
27294;BME280;14785;52.556;13.430;2023-08-06T11:35:50;99487.91;;;21.01;100.00
27294;BME280;14785;52.556;13.430;2023-08-06T11:38:17;99484.88;;;21.72;100.00
27294;BME280;14785;52.556;13.430;2023-08-06T11:40:46;99478.38;;;22.00;100.00
27294;BME280;14785;52.556;13.430;2023-08-06T11:43:13;99483.88;;;21.52;100.00
27294;BME280;14785;52.556;13.430;2023-08-06T11:45:38;99473.22;;;21.72;100.00
27294;BME280;14785;52.556;13.430;2023-08-06T11:48:05;99474.75;;;21.10;100.00
27294;BME280;14785;52.556;13.430;2023-08-06T11:50:35;99471.28;;;21.14;100.00
27294;BME280;14785;52.556;13.430;2023-08-06T11:53:07;99467.06;;;22.08;100.00
27294;BME280;14785;52.556;13.430;2023-08-06T11:55:35;99468.88;;;21.97;100.00
27294;BME280;14785;52.556;13.430;2023-08-06T11:58:04;99461.28;;;21.68;100.00
27294;BME280;14785;52.556;13.430;2023-08-06T12:00:31;99456.06;;;21.61;100.00
27294;BME280;14785;52.556;13.430;2023-08-06T12:02:59;99459.84;;;21.60;100.00
27294;BME280;14785;52.556;13.430;2023-08-06T12:05:32;99455.66;;;21.21;100.00
27294;BME280;14785;52.556;13.430;2023-08-06T12:08:03;99462.47;;;20.59;100.00
27294;BME280;14785;52.556;13.430;2023-08-06T12:10:31;99453.34;;;20.10;100.00
27294;BME280;14785;52.556;13.430;2023-08-06T12:13:07;99458.47;;;20.45;100.00
27294;BME280;14785;52.556;13.430;2023-08-06T12:15:32;99449.19;;;20.57;100.00
27294;BME280;14785;52.556;13.430;2023-08-06T12:17:58;99447.38;;;20.63;100.00
27294;BME280;14785;52.556;13.430;2023-08-06T12:20:26;99450.66;;;20.65;100.00
27294;BME280;14785;52.556;13.430;2023-08-06T12:22:54;99452.44;;;20.38;100.00
27294;BME280;14785;52.556;13.430;2023-08-06T12:25:19;99445.16;;;20.38;100.00
27294;BME280;14785;52.556;13.430;2023-08-06T12:27:45;99439.41;;;21.43;100.00
27294;BME280;14785;52.556;13.430;2023-08-06T12:30:12;99449.25;;;20.41;100.00
27294;BME280;14785;52.556;13.430;2023-08-06T12:32:39;99452.44;;;20.59;100.00
27294;BME280;14785;52.556;13.430;2023-08-06T12:35:04;99439.09;;;21.39;100.00
27294;BME280;14785;52.556;13.430;2023-08-06T12:37:34;99445.34;;;21.71;100.00
27294;BME280;14785;52.556;13.430;2023-08-06T12:39:59;99454.22;;;20.49;100.00
27294;BME280;14785;52.556;13.430;2023-08-06T12:42:25;99451.56;;;19.66;100.00
27294;BME280;14785;52.556;13.430;2023-08-06T12:44:51;99446.75;;;19.40;100.00